2020/09/21 04:00 VVNB 210400Z 17008KT 140V200 9999 FEW015 BKN021 31/24 Q1009 NOSIG
2020/09/21 04:00 VVDN 210400Z 35004KT 9999 TS FEW015 FEW017CB BKN060 29/26 Q1011 NOSIG
2020/09/21 04:00 VVTS 210400Z 33004KT 290V030 9999 BKN015 31/26 Q1009 NOSIG
2020/09/21 04:00 VVPB 210400Z VRB02KT 9999 SCT015 BKN050 29/25 Q1011 NOSIG

Powered by MinhViet JSC.